createdAt,value
2022-08-09T00:01:42.828Z,3.40
2022-08-09T00:04:34.360Z,3.40
2022-08-09T00:07:10.860Z,3.37
2022-08-09T00:09:40.615Z,3.53
2022-08-09T00:12:15.583Z,3.37
2022-08-09T00:14:54.465Z,3.03
2022-08-09T00:18:06.067Z,3.40
2022-08-09T00:20:15.586Z,3.37
2022-08-09T00:22:47.122Z,3.80
2022-08-09T00:25:23.415Z,3.53
2022-08-09T00:28:01.111Z,3.67
2022-08-09T00:30:33.483Z,3.60
2022-08-09T00:33:02.843Z,3.70
2022-08-09T00:35:43.275Z,3.50
2022-08-09T00:38:15.155Z,3.80
2022-08-09T00:40:52.674Z,3.53
2022-08-09T00:44:11.824Z,3.60
2022-08-09T00:46:28.342Z,4.00
2022-08-09T00:49:04.018Z,4.03
2022-08-09T00:51:33.998Z,3.83
2022-08-09T00:54:13.501Z,4.20
2022-08-09T00:56:44.950Z,3.43
2022-08-09T00:59:14.110Z,3.40
2022-08-09T01:02:02.956Z,3.80
2022-08-09T01:04:38.744Z,3.53
2022-08-09T01:07:14.074Z,3.88
2022-08-09T01:09:49.724Z,3.40
2022-08-09T01:12:28.980Z,3.73
2022-08-09T01:15:05.965Z,3.50
2022-08-09T01:17:42.902Z,3.77
2022-08-09T01:20:21.175Z,4.10
2022-08-09T01:23:12.289Z,3.70
2022-08-09T01:26:14.988Z,3.97
2022-08-09T01:28:48.888Z,3.80
2022-08-09T01:32:29.783Z,3.80
2022-08-09T01:34:20.893Z,3.50
2022-08-09T01:36:51.074Z,3.93
2022-08-09T01:39:23.217Z,3.70
2022-08-09T01:42:00.638Z,3.80
2022-08-09T01:44:34.379Z,4.00
2022-08-09T01:47:04.946Z,3.80
2022-08-09T01:49:39.033Z,3.83
2022-08-09T01:52:11.510Z,4.10
2022-08-09T01:54:59.549Z,4.10
2022-08-09T01:57:40.204Z,4.20
2022-08-09T02:00:34.631Z,3.80
2022-08-09T02:03:07.587Z,4.17
2022-08-09T02:06:04.237Z,4.00
2022-08-09T02:08:57.451Z,4.20
2022-08-09T02:11:40.282Z,4.20
2022-08-09T02:14:25.237Z,4.50
2022-08-09T02:17:14.639Z,4.50
2022-08-09T02:19:47.662Z,4.73
2022-08-09T02:22:31.646Z,4.50
2022-08-09T02:25:09.759Z,4.87
2022-08-09T02:28:00.074Z,4.60
2022-08-09T02:30:32.807Z,4.50
2022-08-09T02:33:07.936Z,4.00
2022-08-09T02:36:02.119Z,3.93
2022-08-09T02:38:35.566Z,4.40
2022-08-09T02:41:09.672Z,4.30
2022-08-09T02:43:54.124Z,4.33
2022-08-09T02:46:27.434Z,4.30
2022-08-09T02:49:02.827Z,4.93
2022-08-09T02:51:40.528Z,4.43
2022-08-09T02:54:13.875Z,4.53
2022-08-09T02:56:51.039Z,4.63
2022-08-09T02:59:26.538Z,4.13
2022-08-09T03:02:07.292Z,4.53
2022-08-09T03:04:44.157Z,4.37
2022-08-09T03:07:15.431Z,4.37
2022-08-09T03:09:54.041Z,4.27
2022-08-09T03:12:24.785Z,4.27
2022-08-09T03:14:54.803Z,4.47
2022-08-09T03:17:27.113Z,4.33
2022-08-09T03:20:02.915Z,4.60
2022-08-09T03:22:41.827Z,4.60
2022-08-09T03:25:27.037Z,4.47
2022-08-09T03:28:05.339Z,4.73
2022-08-09T03:30:43.355Z,4.47
2022-08-09T03:33:18.817Z,4.60
2022-08-09T03:36:12.584Z,4.30
2022-08-09T03:38:43.001Z,4.90
2022-08-09T03:41:14.848Z,4.50
2022-08-09T03:44:03.660Z,4.60
2022-08-09T03:46:36.938Z,5.10
2022-08-09T03:49:08.757Z,5.00
2022-08-09T03:51:56.962Z,4.83
2022-08-09T03:54:32.141Z,4.77
2022-08-09T03:57:04.343Z,4.10
2022-08-09T03:59:54.498Z,4.83
2022-08-09T04:02:27.922Z,5.30
2022-08-09T04:05:00.642Z,5.00
2022-08-09T04:07:47.368Z,5.07
2022-08-09T04:10:29.399Z,5.10
2022-08-09T04:13:04.154Z,5.00
2022-08-09T04:16:18.350Z,4.93
2022-08-09T04:18:24.893Z,5.00
2022-08-09T04:20:54.133Z,5.30
2022-08-09T04:23:25.890Z,5.00
2022-08-09T04:25:55.992Z,5.33
2022-08-09T04:28:30.805Z,5.13
2022-08-09T04:31:09.423Z,5.20
2022-08-09T04:33:47.327Z,5.37
2022-08-09T04:36:27.406Z,5.00
2022-08-09T04:39:00.081Z,5.30
2022-08-09T04:41:32.153Z,4.97
2022-08-09T04:44:06.417Z,5.50
2022-08-09T04:46:59.119Z,5.33
2022-08-09T04:49:52.939Z,5.57
2022-08-09T04:52:32.004Z,5.30
2022-08-09T04:55:07.264Z,5.67
2022-08-09T04:57:58.482Z,5.00
2022-08-09T05:00:31.636Z,4.83
2022-08-09T05:03:30.588Z,5.20
2022-08-09T05:06:06.458Z,5.20
2022-08-09T05:08:36.681Z,5.20
2022-08-09T05:11:08.759Z,5.17
2022-08-09T05:13:40.523Z,5.13
2022-08-09T05:16:10.352Z,5.07
2022-08-09T05:18:50.627Z,5.10
2022-08-09T05:21:30.219Z,5.03
2022-08-09T05:24:06.701Z,5.10
2022-08-09T05:26:46.199Z,5.23
2022-08-09T05:29:21.253Z,5.00
2022-08-09T05:31:57.566Z,4.30
2022-08-09T05:34:31.499Z,4.60
2022-08-09T05:37:05.903Z,4.00
2022-08-09T05:39:43.819Z,4.10
2022-08-09T05:42:20.524Z,4.23
2022-08-09T05:44:51.877Z,4.17
2022-08-09T05:47:22.644Z,3.87
2022-08-09T05:50:24.442Z,4.20
2022-08-09T05:52:42.948Z,3.77
2022-08-09T05:55:20.450Z,3.77
2022-08-09T05:57:56.698Z,3.80
2022-08-09T06:00:28.810Z,3.33
2022-08-09T06:02:59.710Z,3.87
2022-08-09T06:05:57.519Z,3.50
2022-08-09T06:08:24.989Z,3.50
2022-08-09T06:10:55.300Z,3.80
2022-08-09T06:13:33.746Z,3.73
2022-08-09T06:16:04.943Z,4.07
2022-08-09T06:18:36.496Z,4.00
2022-08-09T06:21:06.482Z,3.40
2022-08-09T06:23:57.874Z,3.70
2022-08-09T06:26:28.597Z,3.60
2022-08-09T06:29:04.736Z,3.67
2022-08-09T06:31:40.363Z,3.77
2022-08-09T06:34:26.232Z,3.37
2022-08-09T06:36:59.849Z,3.10
2022-08-09T06:39:39.690Z,3.57
2022-08-09T06:42:25.040Z,3.33
2022-08-09T06:45:04.658Z,3.33
2022-08-09T06:48:00.916Z,3.00
2022-08-09T06:50:31.254Z,2.87
2022-08-09T06:53:01.766Z,3.27
2022-08-09T06:55:33.038Z,3.17
2022-08-09T06:58:04.640Z,2.60
2022-08-09T07:00:50.171Z,2.93
2022-08-09T07:03:28.113Z,2.80
2022-08-09T07:06:03.625Z,3.20
2022-08-09T07:08:37.268Z,2.70
2022-08-09T07:11:12.417Z,2.93
2022-08-09T07:13:45.045Z,2.97
2022-08-09T07:16:41.996Z,2.80
2022-08-09T07:19:23.516Z,3.17
2022-08-09T07:21:57.730Z,2.87
2022-08-09T07:24:31.839Z,2.80
2022-08-09T07:27:26.735Z,2.57
2022-08-09T07:30:01.514Z,2.67
2022-08-09T07:32:34.287Z,2.77
2022-08-09T07:35:07.985Z,2.40
2022-08-09T07:37:43.309Z,2.40
2022-08-09T07:40:17.227Z,2.20
2022-08-09T07:42:50.326Z,2.37
2022-08-09T07:45:39.310Z,2.60
2022-08-09T07:48:29.530Z,2.63
2022-08-09T07:51:10.328Z,2.00
2022-08-09T07:54:05.320Z,2.40
2022-08-09T07:56:38.855Z,2.07
2022-08-09T07:59:25.737Z,2.20
2022-08-09T08:02:04.938Z,2.37
2022-08-09T08:04:36.459Z,1.93
2022-08-09T08:07:15.232Z,2.10
2022-08-09T08:10:08.200Z,2.10
2022-08-09T08:12:42.339Z,2.10
2022-08-09T08:15:14.425Z,1.73
2022-08-09T08:17:54.198Z,1.93
2022-08-09T08:20:30.256Z,2.03
2022-08-09T08:23:06.511Z,2.00
2022-08-09T08:25:50.439Z,2.00
2022-08-09T08:28:36.019Z,1.97
2022-08-09T08:31:14.126Z,1.70
2022-08-09T08:33:53.942Z,2.00
2022-08-09T08:36:28.616Z,1.63
2022-08-09T08:39:00.382Z,1.70
2022-08-09T08:41:41.738Z,2.00
2022-08-09T08:44:14.490Z,1.80
2022-08-09T08:47:02.313Z,1.70
2022-08-09T08:49:46.401Z,1.80
2022-08-09T08:55:13.749Z,1.87
2022-08-09T08:57:57.103Z,2.00
2022-08-09T09:00:30.455Z,1.70
2022-08-09T09:03:11.976Z,2.10
2022-08-09T09:05:59.741Z,1.90
2022-08-09T09:08:37.906Z,1.80
2022-08-09T09:11:13.607Z,2.00
2022-08-09T09:13:57.146Z,2.00
2022-08-09T09:16:32.268Z,1.80
2022-08-09T09:22:07.978Z,2.00
2022-08-09T09:24:43.868Z,2.20
2022-08-09T09:28:04.451Z,1.97
2022-08-09T09:30:28.814Z,2.13
2022-08-09T09:33:15.683Z,2.40
2022-08-09T09:36:00.690Z,2.30
2022-08-09T09:38:52.209Z,2.10
2022-08-09T09:41:48.772Z,1.93
2022-08-09T09:44:27.985Z,2.00
2022-08-09T09:47:08.403Z,2.30
2022-08-09T09:49:56.371Z,2.13
2022-08-09T09:52:36.428Z,2.07
2022-08-09T09:55:28.307Z,1.80
2022-08-09T09:58:17.046Z,1.70
2022-08-09T10:00:55.305Z,2.07
2022-08-09T10:03:57.817Z,2.20
2022-08-09T10:06:32.063Z,2.00
2022-08-09T10:09:12.002Z,1.87
2022-08-09T10:12:07.646Z,2.03
2022-08-09T10:14:47.713Z,1.97
2022-08-09T10:17:54.984Z,1.90
2022-08-09T10:20:32.566Z,1.90
2022-08-09T10:23:17.494Z,1.87
2022-08-09T10:26:07.497Z,1.80
2022-08-09T10:28:41.831Z,2.10
2022-08-09T10:34:10.761Z,1.90
2022-08-09T10:36:56.743Z,2.13
2022-08-09T10:39:28.657Z,1.70
2022-08-09T10:41:57.709Z,1.60
2022-08-09T10:44:30.385Z,2.00
2022-08-09T10:48:12.638Z,1.60
2022-08-09T10:50:14.840Z,1.77
2022-08-09T10:53:10.439Z,1.90
2022-08-09T10:55:55.455Z,1.50
2022-08-09T10:58:32.455Z,1.60
2022-08-09T11:03:06.578Z,1.80
2022-08-09T11:04:26.910Z,1.50
2022-08-09T11:07:57.563Z,1.30
2022-08-09T11:10:30.808Z,1.30
2022-08-09T11:13:49.404Z,1.40
2022-08-09T11:16:35.552Z,1.27
2022-08-09T11:19:08.006Z,1.30
2022-08-09T11:22:05.232Z,1.57
2022-08-09T11:25:09.823Z,1.50
2022-08-09T11:28:02.963Z,1.50
2022-08-09T11:30:36.205Z,1.40
2022-08-09T11:33:09.306Z,1.30
2022-08-09T11:35:50.404Z,1.40
2022-08-09T11:38:28.658Z,1.30
2022-08-09T11:41:38.071Z,2.20
2022-08-09T11:44:09.809Z,1.70
2022-08-09T11:46:56.990Z,1.50
2022-08-09T11:50:55.585Z,1.33
2022-08-09T11:54:01.232Z,1.40
2022-08-09T11:56:42.594Z,1.30
2022-08-09T11:59:30.344Z,1.13
2022-08-09T12:02:18.148Z,1.37
2022-08-09T12:04:57.943Z,1.60
2022-08-09T12:07:41.173Z,1.47
2022-08-09T12:10:31.826Z,1.50
2022-08-09T12:14:10.483Z,1.83
2022-08-09T12:15:52.872Z,1.27
2022-08-09T12:18:30.165Z,1.40
2022-08-09T12:21:26.493Z,1.30
2022-08-09T12:24:08.660Z,1.37
2022-08-09T12:26:44.799Z,1.30
2022-08-09T12:29:52.679Z,1.20
2022-08-09T12:32:28.659Z,1.13
2022-08-09T12:35:02.789Z,1.37
2022-08-09T12:37:33.387Z,1.70
2022-08-09T12:40:14.017Z,1.40
2022-08-09T12:42:45.311Z,1.20
2022-08-09T12:45:33.976Z,1.07
2022-08-09T12:48:07.966Z,1.30
2022-08-09T12:50:51.372Z,1.43
2022-08-09T12:53:35.058Z,1.00
2022-08-09T12:56:43.728Z,1.20
2022-08-09T12:59:10.178Z,1.20
2022-08-09T13:01:48.992Z,1.30
2022-08-09T13:04:36.008Z,1.10
2022-08-09T13:07:13.329Z,1.30
2022-08-09T13:09:43.267Z,1.30
2022-08-09T13:12:22.343Z,1.00
2022-08-09T13:14:54.912Z,1.10
2022-08-09T13:18:03.514Z,1.13
2022-08-09T13:20:37.234Z,1.00
2022-08-09T13:24:06.926Z,1.20
2022-08-09T13:25:56.346Z,1.20
2022-08-09T13:28:34.561Z,1.20
2022-08-09T13:32:17.628Z,1.17
2022-08-09T13:34:01.240Z,1.30
2022-08-09T13:36:42.064Z,1.13
2022-08-09T13:41:55.682Z,1.13
2022-08-09T13:42:03.834Z,1.33
2022-08-09T13:44:34.080Z,1.37
2022-08-09T13:47:26.686Z,1.20
2022-08-09T13:49:57.766Z,1.13
2022-08-09T13:52:33.332Z,1.10
2022-08-09T13:55:05.176Z,1.33
2022-08-09T13:57:39.859Z,1.30
2022-08-09T14:00:13.852Z,1.10
2022-08-09T14:03:03.809Z,1.10
2022-08-09T14:05:58.860Z,1.10
2022-08-09T14:08:28.398Z,1.50
2022-08-09T14:10:58.006Z,1.30
2022-08-09T14:14:21.933Z,1.30
2022-08-09T14:16:28.202Z,1.33
2022-08-09T14:18:58.518Z,1.20
2022-08-09T14:21:32.221Z,1.20
2022-08-09T14:24:10.081Z,1.30
2022-08-09T14:26:51.440Z,1.17
2022-08-09T14:30:03.981Z,1.30
2022-08-09T14:32:16.137Z,1.10
2022-08-09T14:34:55.638Z,1.40
2022-08-09T14:37:28.286Z,1.30
2022-08-09T14:39:58.088Z,1.40
2022-08-09T14:42:31.541Z,1.47
2022-08-09T14:46:57.106Z,1.20
2022-08-09T14:47:58.369Z,1.20
2022-08-09T14:50:31.439Z,1.30
2022-08-09T14:53:03.374Z,1.30
2022-08-09T14:55:35.644Z,1.40
2022-08-09T14:58:06.257Z,1.20
2022-08-09T15:00:37.696Z,1.20
2022-08-09T15:03:11.567Z,1.30
2022-08-09T15:05:50.297Z,1.40
2022-08-09T15:08:25.291Z,1.40
2022-08-09T15:11:00.420Z,1.10
2022-08-09T15:13:56.081Z,1.30
2022-08-09T15:16:20.593Z,1.20
2022-08-09T15:18:49.793Z,1.37
2022-08-09T15:22:01.304Z,1.30
2022-08-09T15:24:19.091Z,1.60
2022-08-09T15:26:53.567Z,1.10
2022-08-09T15:30:58.790Z,1.20
2022-08-09T15:32:29.903Z,1.23
2022-08-09T15:35:01.009Z,1.10
2022-08-09T15:37:56.568Z,1.10
2022-08-09T15:40:32.421Z,1.20
2022-08-09T15:43:02.783Z,1.00
2022-08-09T15:46:07.841Z,1.30
2022-08-09T15:48:29.446Z,1.50
2022-08-09T15:51:01.203Z,1.50
2022-08-09T15:54:02.642Z,1.30
2022-08-09T15:56:29.103Z,1.43
2022-08-09T15:59:00.384Z,1.20
2022-08-09T16:01:35.548Z,1.10
2022-08-09T16:04:05.501Z,1.20
2022-08-09T16:06:44.736Z,1.40
2022-08-09T16:09:19.349Z,1.53
2022-08-09T16:12:11.289Z,1.30
2022-08-09T16:14:40.747Z,1.43
2022-08-09T16:17:11.738Z,1.23
2022-08-09T16:19:48.927Z,1.30
2022-08-09T16:22:19.326Z,1.30
2022-08-09T16:24:57.055Z,1.27
2022-08-09T16:27:30.260Z,1.47
2022-08-09T16:30:02.270Z,1.20
2022-08-09T16:32:49.553Z,1.70
2022-08-09T16:35:56.438Z,1.10
2022-08-09T16:38:11.735Z,1.60
2022-08-09T16:40:41.608Z,1.30
2022-08-09T16:43:12.120Z,1.40
2022-08-09T16:45:44.611Z,1.30
2022-08-09T16:48:39.215Z,1.20
2022-08-09T16:51:08.706Z,1.30
2022-08-09T16:54:02.404Z,1.50
2022-08-09T16:56:32.397Z,1.47
2022-08-09T16:59:10.398Z,1.40
2022-08-09T17:01:43.093Z,1.20
2022-08-09T17:04:26.071Z,1.40
2022-08-09T17:08:41.697Z,1.50
2022-08-09T17:09:48.489Z,1.50
2022-08-09T17:12:20.162Z,1.40
2022-08-09T17:14:57.187Z,1.20
2022-08-09T17:17:28.199Z,1.30
2022-08-09T17:20:33.139Z,1.50
2022-08-09T17:22:52.537Z,1.30
2022-08-09T17:25:23.647Z,1.40
2022-08-09T17:27:55.242Z,1.50
2022-08-09T17:30:29.241Z,1.40
2022-08-09T17:33:05.543Z,1.60
2022-08-09T17:35:51.502Z,1.50
2022-08-09T17:38:30.789Z,1.70
2022-08-09T17:41:04.241Z,1.50
2022-08-09T17:43:37.020Z,1.43
2022-08-09T17:46:09.738Z,1.40
2022-08-09T17:48:52.157Z,1.30
2022-08-09T17:51:23.164Z,1.63
2022-08-09T17:53:55.785Z,1.37
2022-08-09T17:56:28.966Z,1.30
2022-08-09T17:58:59.937Z,1.43
2022-08-09T18:02:03.314Z,1.60
2022-08-09T18:04:20.547Z,1.50
2022-08-09T18:06:55.285Z,1.53
2022-08-09T18:09:40.396Z,1.50
2022-08-09T18:12:15.048Z,1.33
2022-08-09T18:14:53.662Z,1.40
2022-08-09T18:18:02.959Z,1.50
2022-08-09T18:20:56.592Z,1.67
2022-08-09T18:23:07.280Z,1.50
2022-08-09T18:25:52.719Z,1.57
2022-08-09T18:30:41.927Z,1.60
2022-08-09T18:31:32.319Z,1.50
2022-08-09T18:34:09.931Z,1.40
2022-08-09T18:36:39.135Z,1.60
2022-08-09T18:39:15.999Z,1.73
2022-08-09T18:41:52.789Z,1.60
2022-08-09T18:44:25.718Z,1.43
2022-08-09T18:47:08.248Z,1.50
2022-08-09T18:49:46.902Z,2.07
2022-08-09T18:52:28.670Z,2.10
2022-08-09T18:55:04.923Z,1.70
2022-08-09T18:57:42.880Z,1.60
2022-08-09T19:00:19.133Z,1.73
2022-08-09T19:02:53.899Z,1.80
2022-08-09T19:05:48.843Z,1.83
2022-08-09T19:08:18.306Z,1.83
2022-08-09T19:10:48.703Z,1.93
2022-08-09T19:13:23.567Z,1.80
2022-08-09T19:16:09.321Z,1.70
2022-08-09T19:18:42.291Z,1.50
2022-08-09T19:21:15.072Z,1.93
2022-08-09T19:24:32.259Z,2.30
2022-08-09T19:26:34.923Z,2.57
2022-08-09T19:29:09.387Z,1.80
2022-08-09T19:31:46.004Z,1.97
2022-08-09T19:34:21.817Z,2.10
2022-08-09T19:36:54.252Z,2.50
2022-08-09T19:39:28.900Z,2.33
2022-08-09T19:42:15.308Z,2.00
2022-08-09T19:44:50.598Z,2.40
2022-08-09T19:47:23.365Z,1.93
2022-08-09T19:50:06.876Z,2.20
2022-08-09T19:52:51.811Z,2.23
2022-08-09T19:55:25.663Z,1.97
2022-08-09T19:57:55.301Z,1.90
2022-08-09T20:00:25.430Z,2.13
2022-08-09T20:04:08.156Z,2.20
2022-08-09T20:05:46.435Z,2.10
2022-08-09T20:08:33.326Z,2.00
2022-08-09T20:11:04.954Z,2.27
2022-08-09T20:13:37.182Z,2.03
2022-08-09T20:16:38.495Z,2.07
2022-08-09T20:19:42.369Z,1.90
2022-08-09T20:21:56.521Z,2.00
2022-08-09T20:24:33.713Z,1.87
2022-08-09T20:27:08.455Z,1.90
2022-08-09T20:29:39.147Z,1.80
2022-08-09T20:32:30.461Z,1.77
2022-08-09T20:34:58.824Z,2.07
2022-08-09T20:38:19.471Z,1.90
2022-08-09T20:40:26.523Z,2.20
2022-08-09T20:42:59.709Z,1.93
2022-08-09T20:46:01.615Z,1.90
2022-08-09T20:48:21.420Z,2.07
2022-08-09T20:50:55.660Z,2.00
2022-08-09T20:53:35.362Z,2.30
2022-08-09T20:56:20.470Z,2.20
2022-08-09T20:58:57.760Z,2.43
2022-08-09T21:01:35.012Z,2.37
2022-08-09T21:05:54.030Z,2.30
2022-08-09T21:07:11.770Z,2.50
2022-08-09T21:09:55.315Z,2.10
2022-08-09T21:15:23.411Z,2.33
2022-08-09T21:18:23.475Z,2.47
2022-08-09T21:20:45.821Z,2.40
2022-08-09T21:23:26.498Z,2.20
2022-08-09T21:26:15.599Z,2.73
2022-08-09T21:28:55.844Z,2.40
2022-08-09T21:31:48.563Z,2.60
2022-08-09T21:34:21.119Z,2.70
2022-08-09T21:36:58.159Z,2.57
2022-08-09T21:39:28.407Z,2.40
2022-08-09T21:42:11.588Z,2.20
2022-08-09T21:44:42.781Z,2.30
2022-08-09T21:47:18.417Z,2.43
2022-08-09T21:49:48.055Z,2.50
2022-08-09T21:52:20.242Z,2.17
2022-08-09T21:54:59.270Z,2.37
2022-08-09T21:57:38.174Z,2.30
2022-08-09T22:00:15.056Z,2.70
2022-08-09T22:02:51.099Z,2.83
2022-08-09T22:05:36.185Z,2.53
2022-08-09T22:08:12.854Z,2.43
2022-08-09T22:11:50.291Z,2.50
2022-08-09T22:13:37.985Z,2.77
2022-08-09T22:16:09.639Z,2.50
2022-08-09T22:18:53.664Z,2.63
2022-08-09T22:21:44.689Z,2.50
2022-08-09T22:24:16.933Z,2.60
2022-08-09T22:26:50.965Z,2.93
2022-08-09T22:29:28.917Z,2.77
2022-08-09T22:32:12.581Z,2.80
2022-08-09T22:35:02.740Z,2.70
2022-08-09T22:37:40.346Z,2.80
2022-08-09T22:40:20.234Z,3.10
2022-08-09T22:42:49.616Z,2.80
2022-08-09T22:48:18.806Z,2.83
2022-08-09T22:48:29.567Z,2.63
2022-08-09T22:50:57.972Z,2.70
2022-08-09T22:53:44.239Z,2.80
2022-08-09T22:56:32.839Z,2.90
2022-08-09T22:59:05.845Z,2.90
2022-08-09T23:01:51.941Z,3.00
2022-08-09T23:04:22.726Z,3.30
2022-08-09T23:07:13.830Z,2.83
2022-08-09T23:09:43.027Z,3.00
2022-08-09T23:12:12.208Z,2.90
2022-08-09T23:14:42.153Z,2.80
2022-08-09T23:17:11.784Z,3.10
2022-08-09T23:20:01.091Z,3.00
2022-08-09T23:22:31.779Z,2.83
2022-08-09T23:25:00.753Z,3.00
2022-08-09T23:27:29.637Z,3.37
2022-08-09T23:29:58.598Z,3.73
2022-08-09T23:32:27.605Z,3.20
2022-08-09T23:34:57.865Z,2.83
2022-08-09T23:37:27.795Z,3.00
2022-08-09T23:39:56.759Z,3.10
2022-08-09T23:42:28.299Z,3.40
2022-08-09T23:44:58.112Z,3.07
2022-08-09T23:47:27.107Z,3.00
2022-08-09T23:49:57.521Z,3.10
2022-08-09T23:52:26.574Z,3.20
2022-08-09T23:54:55.543Z,3.27
2022-08-09T23:57:24.592Z,2.90
